Decoded Metar for MMCE (CIUDAD DEL CARMEN in MEXICO) (IATA:CME) | Meteo·Mobile Aviation Weather
aviador You're here:

MMCE Decoded Metar

CIUDAD DEL CARMEN in MEXICO
Report Time2019-02-22 23:40:00
UTC Time2019-02-23 00:37:12
Flight Rules vfr VFR
Wind040° at 09 kt
W.Decomp.*RWY 31: 0.3 kt HW 9.0 kt RCW
W.Rank040° ranks 11
Current wind is above 040° avg. (8.3)
Visibility9999 m
Phenomena:N/A
Clouds:Few 020 Hf
Expected CloudBase > 1,200 ft AGL from Temp-Dew spread
CeilingNone
Temp28°C (ISA +13)
Dew Point25°C (84% RH)
Heat Index32.7°C
QNH1009 hPa
Density Alt2,054 ft
Elevation7 ft
Report Wrong Elevation
Raw Report
METAR MMCE 222340Z 04009KT 7SM FEW020 28/25 A2980 RMK SLP088 54003
953 8/100 HZY=

Extra information for MMCE:More info

Metar Taf Metar & Taf Last 4 Metars F.Rules Stats Wind Profile Meteogram Temp Stats Airport Information Weather charts Add Link Nearby VenuesMetar ALERT Operation Metar Decoded Social comments